Map

Track Data

SID SEASON NUMBER BASIN SUBBASIN NAME ISO_TIME NATURE LAT LON WMO_WIND WMO_PRES WMO_AGENCY TRACK_TYPE DIST2LAND LANDFALL IFLAG USA_AGENCY USA_ATCF_ID USA_LAT USA_LON USA_RECORD USA_STATUS USA_WIND USA_PRES USA_SSHS USA_R34_NE USA_R34_SE USA_R34_SW USA_R34_NW USA_R50_NE USA_R50_SE USA_R50_SW USA_R50_NW USA_R64_NE USA_R64_SE USA_R64_SW USA_R64_NW USA_POCI USA_ROCI USA_RMW USA_EYE TOKYO_LAT TOKYO_LON TOKYO_GRADE TOKYO_WIND TOKYO_PRES TOKYO_R50_DIR TOKYO_R50_LONG TOKYO_R50_SHORT TOKYO_R30_DIR TOKYO_R30_LONG TOKYO_R30_SHORT TOKYO_LAND CMA_LAT CMA_LON CMA_CAT CMA_WIND CMA_PRES HKO_LAT HKO_LON HKO_CAT HKO_WIND HKO_PRES NEWDELHI_LAT NEWDELHI_LON NEWDELHI_GRADE NEWDELHI_WIND NEWDELHI_PRES NEWDELHI_CI NEWDELHI_DP NEWDELHI_POCI REUNION_LAT REUNION_LON REUNION_TYPE REUNION_WIND REUNION_PRES REUNION_TNUM REUNION_CI REUNION_RMW REUNION_R34_NE REUNION_R34_SE REUNION_R34_SW REUNION_R34_NW REUNION_R50_NE REUNION_R50_SE REUNION_R50_SW REUNION_R50_NW REUNION_R64_NE REUNION_R64_SE REUNION_R64_SW REUNION_R64_NW BOM_LAT BOM_LON BOM_TYPE BOM_WIND BOM_PRES BOM_TNUM BOM_CI BOM_RMW BOM_R34_NE BOM_R34_SE BOM_R34_SW BOM_R34_NW BOM_R50_NE BOM_R50_SE BOM_R50_SW BOM_R50_NW BOM_R64_NE BOM_R64_SE BOM_R64_SW BOM_R64_NW BOM_ROCI BOM_POCI BOM_EYE BOM_POS_METHOD BOM_PRES_METHOD NADI_LAT NADI_LON NADI_CAT NADI_WIND NADI_PRES WELLINGTON_LAT WELLINGTON_LON WELLINGTON_WIND WELLINGTON_PRES DS824_LAT DS824_LON DS824_STAGE DS824_WIND DS824_PRES TD9636_LAT TD9636_LON TD9636_STAGE TD9636_WIND TD9636_PRES TD9635_LAT TD9635_LON TD9635_WIND TD9635_PRES TD9635_ROCI NEUMANN_LAT NEUMANN_LON NEUMANN_CLASS NEUMANN_WIND NEUMANN_PRES MLC_LAT MLC_LON MLC_CLASS MLC_WIND MLC_PRES USA_GUST BOM_GUST BOM_GUST_PER REUNION_GUST REUNION_GUST_PER USA_SEAHGT USA_SEARAD_NE USA_SEARAD_SE USA_SEARAD_SW USA_SEARAD_NW STORM_SPEED STORM_DIR
1903080S12057 1903 23 SI MM NOT_NAMED 1903-03-20 18:00:00 NR -12.3000 57.4000 main 808 785 __________O___ -1 -12.3000 57.4000 7 4 242
1903080S12057 1903 23 SI MM NOT_NAMED 1903-03-20 21:00:00 NR -12.3860 57.2329 main 785 772 __________P___ -1 -12.3860 57.2329 7 4 242
1903080S12057 1903 23 SI MM NOT_NAMED 1903-03-21 00:00:00 NR -12.4676 57.0726 main 772 750 __________P___ -1 -12.4676 57.0726 7 3 243
1903080S12057 1903 23 SI MM NOT_NAMED 1903-03-21 03:00:00 NR -12.5404 56.9260 main 750 748 __________P___ -1 -12.5404 56.9260 7 1 230
1903080S12057 1903 23 SI MM NOT_NAMED 1903-03-21 06:00:00 NR -12.5600 56.9600 reunion main 759 759 _____O____O___ -1 -12.4000 57.6000 99 9.90000 -12.6000 56.8000 7 1 131
1903080S12057 1903 23 SI MM NOT_NAMED 1903-03-21 09:00:00 NR -12.5773 56.9646 main 759 759 _____P____P___ -1 -12.4450 57.4952 99 -12.6434 56.6993 7 0 211
1903080S12057 1903 23 SI MM NOT_NAMED 1903-03-21 12:00:00 NR -12.5939 56.9503 main 759 748 _____P____P___ -1 -12.4892 57.3908 99 -12.6725 56.6199 7 1 233
1903080S12057 1903 23 SI MM NOT_NAMED 1903-03-21 15:00:00 NR -12.6111 56.9214 main 748 738 _____P____P___ -1 -12.5320 57.2873 99 -12.6903 56.5556 7 1 248
1903080S12057 1903 23 SI MM NOT_NAMED 1903-03-21 18:00:00 NR -12.6363 56.8426 main 738 735 _____P____O___ -1 -12.5726 57.1852 99 -12.7000 56.5000 7 2 254
1903080S12057 1903 23 SI MM NOT_NAMED 1903-03-21 21:00:00 NR -12.6548 56.7638 main 735 725 _____P____P___ -1 -12.6105 57.0849 99 -12.6991 56.4428 7 2 258
1903080S12057 1903 23 SI MM NOT_NAMED 1903-03-22 00:00:00 NR -12.6686 56.6897 main 725 714 _____P____P___ -1 -12.6448 56.9870 99 -12.6925 56.3925 7 1 259
1903080S12057 1903 23 SI MM NOT_NAMED 1903-03-22 03:00:00 NR -12.6823 56.6189 main 714 714 _____P____P___ -1 -12.6748 56.8918 99 -12.6897 56.3459 7 1 257
1903080S12057 1903 23 SI MM NOT_NAMED 1903-03-22 06:00:00 NR -12.7000 56.5500 reunion main 714 703 _____O____O___ -1 -12.7000 56.8000 99 9.90000 -12.7000 56.3000 7 1 251
1903080S12057 1903 23 SI MM NOT_NAMED 1903-03-22 09:00:00 NR -12.7298 56.4809 main 703 691 _____P____P___ -1 -12.7199 56.7118 99 -12.7397 56.2500 7 1 244
1903080S12057 1903 23 SI MM NOT_NAMED 1903-03-22 12:00:00 NR -12.7639 56.4137 main 691 691 _____P____P___ -1 -12.7353 56.6274 99 -12.7925 56.2000 7 1 242
1903080S12057 1903 23 SI MM NOT_NAMED 1903-03-22 15:00:00 NR -12.7982 56.3484 main 680 680 _____P____P___ -1 -12.7474 56.5468 99 -12.8491 56.1500 7 1 243
1903080S12057 1903 23 SI MM NOT_NAMED 1903-03-22 18:00:00 NR -12.8287 56.2850 main 680 669 _____P____O___ -1 -12.7575 56.4699 99 -12.9000 56.1000 7 1 247
1903080S12057 1903 23 SI MM NOT_NAMED 1903-03-22 21:00:00 NR -12.8494 56.2254 main 669 666 _____P____P___ -1 -12.7666 56.3968 99 -12.9322 56.0540 7 1 251
1903080S12057 1903 23 SI MM NOT_NAMED 1903-03-23 00:00:00 NR -12.8667 56.1675 main 666 656 _____P____P___ -1 -12.7759 56.3274 99 -12.9575 56.0075 7 1 254
1903080S12057 1903 23 SI MM NOT_NAMED 1903-03-23 03:00:00 NR -12.8829 56.1095 main 656 656 _____P____P___ -1 -12.7867 56.2618 99 -12.9791 55.9572 7 1 254
1903080S12057 1903 23 SI MM NOT_NAMED 1903-03-23 06:00:00 NR -12.9000 56.0500 reunion main 656 646 _____O____O___ -1 -12.8000 56.2000 99 9.90000 -13.0000 55.9000 7 1 252
1903080S12057 1903 23 SI MM NOT_NAMED 1903-03-23 09:00:00 NR -12.9227 55.9833 main 646 635 _____P____P___ -1 -12.8203 56.1426 99 -13.0250 55.8241 7 1 250
1903080S12057 1903 23 SI MM NOT_NAMED 1903-03-23 12:00:00 NR -12.9464 55.9161 main 635 632 _____P____P___ -1 -12.8428 56.0897 99 -13.0500 55.7425 7 1 248
1903080S12057 1903 23 SI MM NOT_NAMED 1903-03-23 15:00:00 NR -12.9710 55.8524 main 632 622 _____P____P___ -1 -12.8669 56.0400 99 -13.0750 55.6647 7 1 248
1903080S12057 1903 23 SI MM NOT_NAMED 1903-03-23 18:00:00 NR -12.9962 55.7962 main 622 622 _____P____O___ -1 -12.8924 55.9925 99 -13.1000 55.6000 7 1 241
1903080S12057 1903 23 SI MM NOT_NAMED 1903-03-23 21:00:00 NR -13.0219 55.7593 main 622 612 _____P____P___ -1 -12.9189 55.9459 99 -13.1250 55.5728 7 1 234
1903080S12057 1903 23 SI MM NOT_NAMED 1903-03-24 00:00:00 NR -13.0479 55.7283 main 612 608 _____P____P___ -1 -12.9459 55.8990 99 -13.1500 55.5575 7 1 234
1903080S12057 1903 23 SI MM NOT_NAMED 1903-03-24 03:00:00 NR -13.0740 55.6946 main 608 608 _____P____P___ -1 -12.9731 55.8508 99 -13.1750 55.5384 7 1 237
1903080S12057 1903 23 SI MM NOT_NAMED 1903-03-24 06:00:00 NR -13.1000 55.6500 reunion main 608 598 _____O____O___ -1 -13.0000 55.8000 99 9.90000 -13.2000 55.5000 7 1 246
1903080S12057 1903 23 SI MM NOT_NAMED 1903-03-24 09:00:00 NR -13.1220 55.5778 main 598 588 _____P____P___ -1 -13.0231 55.7421 99 -13.2210 55.4134 7 2 254
1903080S12057 1903 23 SI MM NOT_NAMED 1903-03-24 12:00:00 NR -13.1442 55.4948 main 588 573 _____P____P___ -1 -13.0459 55.6822 99 -13.2426 55.3075 7 2 254
1903080S12057 1903 23 SI MM NOT_NAMED 1903-03-24 15:00:00 NR -13.1684 55.4091 main 573 564 _____P____P___ -1 -13.0689 55.6205 99 -13.2678 55.1978 7 2 252
1903080S12057 1903 23 SI MM NOT_NAMED 1903-03-24 18:00:00 NR -13.1962 55.3287 main 564 564 _____P____O___ -1 -13.0925 55.5575 99 -13.3000 55.1000 7 1 248
1903080S12057 1903 23 SI MM NOT_NAMED 1903-03-24 21:00:00 NR -13.2135 55.2908 main 564 564 _____P____P___ -1 -13.1170 55.4935 99 -13.3101 55.0881 7 1 239
1903080S12057 1903 23 SI MM NOT_NAMED 1903-03-25 00:00:00 NR -13.2375 55.2555 main 564 549 _____P____P___ -1 -13.1428 55.4290 99 -13.3321 55.0819 7 1 234
1903080S12057 1903 23 SI MM NOT_NAMED 1903-03-25 03:00:00 NR -13.2792 55.1996 main 549 539 _____P____P___ -1 -13.1703 55.3644 99 -13.3881 55.0348 7 2 234
1903080S12057 1903 23 SI MM NOT_NAMED 1903-03-25 06:00:00 NR -13.3500 55.1000 reunion main 539 525 _____O____O___ -1 -13.2000 55.3000 99 9.90000 -13.5000 54.9000 7 3 235
1903080S12057 1903 23 SI MM NOT_NAMED 1903-03-25 09:00:00 NR -13.4515 54.9429 main 510 496 _____P____P___ -1 -13.2019 55.2790 99 -13.7010 54.6068 7 4 236
1903080S12057 1903 23 SI MM NOT_NAMED 1903-03-25 12:00:00 NR -13.5789 54.7445 main 486 462 _____P____P___ -1 -13.2021 55.2632 99 -13.9556 54.2258 7 5 237
1903080S12057 1903 23 SI MM NOT_NAMED 1903-03-25 15:00:00 NR -13.7195 54.5254 main 462 434 _____P____P___ -1 -13.2066 55.2440 99 -14.2323 53.8068 7 5 237
1903080S12057 1903 23 SI MM NOT_NAMED 1903-03-25 18:00:00 NR -13.8606 54.3064 main 434 410 _____P____O___ -1 -13.2213 55.2129 99 -14.5000 53.4000 7 5 237
1903080S12057 1903 23 SI MM NOT_NAMED 1903-03-25 21:00:00 NR -13.9770 54.1157 main 410 386 _____P____P___ -1 -13.2521 55.1615 99 -14.7020 53.0699 7 4 237
1903080S12057 1903 23 SI MM NOT_NAMED 1903-03-26 00:00:00 NR -14.0985 53.9216 main 386 362 _____P____P___ -1 -13.3048 55.0812 99 -14.8923 52.7620 7 5 236
1903080S12057 1903 23 SI MM NOT_NAMED 1903-03-26 03:00:00 NR -14.2360 53.7183 main 362 334 _____P____P___ -1 -13.3855 54.9636 99 -15.0864 52.4731 7 5 234
1903080S12057 1903 23 SI MM NOT_NAMED 1903-03-26 06:00:00 NR -14.4000 53.5000 reunion main 334 308 _____O____O___ -1 -13.5000 54.8000 99 9.90000 -15.3000 52.2000 7 6 231
1903080S12057 1903 23 SI MM NOT_NAMED 1903-03-26 09:00:00 NR -14.6046 53.2428 main 297 272 _____P____P___ -1 -13.6601 54.5502 99 -15.5492 51.9354 7 7 230
1903080S12057 1903 23 SI MM NOT_NAMED 1903-03-26 12:00:00 NR -14.8366 52.9684 main 272 236 _____P____P___ -1 -13.8534 54.2521 99 -15.8198 51.6847 7 7 228
1903080S12057 1903 23 SI MM NOT_NAMED 1903-03-26 15:00:00 NR -15.0899 52.6794 main 236 203 _____P____P___ -1 -14.0743 53.9172 99 -16.1055 51.4417 7 8 227
1903080S12057 1903 23 SI MM NOT_NAMED 1903-03-26 18:00:00 NR -15.3586 52.3785 main 203 172 _____P____O___ -1 -14.3173 53.5570 99 -16.4000 51.2000 7 8 228
1903080S12057 1903 23 SI MM NOT_NAMED 1903-03-26 21:00:00 NR -15.6327 52.0646 main 172 146 _____P____P___ -1 -14.5768 53.1834 99 -16.6887 50.9458 7 8 227
1903080S12057 1903 23 SI MM NOT_NAMED 1903-03-27 00:00:00 NR -15.9161 51.7502 main 150 130 _____P____P___ -1 -14.8473 52.8082 99 -16.9849 50.6923 7 8 226
1903080S12057 1903 23 SI MM NOT_NAMED 1903-03-27 03:00:00 NR -16.2061 51.4428 main 125 115 _____P____P___ -1 -15.1235 52.4430 99 -17.2887 50.4426 7 8 225
1903080S12057 1903 23 SI MM NOT_NAMED 1903-03-27 06:00:00 NR -16.5000 51.1500 reunion main 120 108 _____O____O___ -1 -15.4000 52.1000 99 9.90000 -17.6000 50.2000 7 8 222
1903080S12057 1903 23 SI MM NOT_NAMED 1903-03-27 09:00:00 NR -16.7804 50.8951 main 116 98 _____P____P___ -1 -15.6431 51.8226 99 -17.9177 49.9676 7 7 220
1903080S12057 1903 23 SI MM NOT_NAMED 1903-03-27 12:00:00 NR -17.0659 50.6521 main 101 84 _____P____P___ -1 -15.8894 51.5620 99 -18.2423 49.7421 7 7 218
1903080S12057 1903 23 SI MM NOT_NAMED 1903-03-27 15:00:00 NR -17.3554 50.4181 main 92 75 _____P____P___ -1 -16.1401 51.3155 99 -18.5708 49.5207 7 7 217
1903080S12057 1903 23 SI MM NOT_NAMED 1903-03-27 18:00:00 NR -17.6482 50.1902 main 75 54 _____P____O___ -1 -16.3963 51.0805 99 -18.9000 49.3000 7 7 216
1903080S12057 1903 23 SI MM NOT_NAMED 1903-03-27 21:00:00 NR -17.9503 49.9605 main 62 31 _____P____P___ -1 -16.6593 50.8541 99 -19.2412 49.0669 7 7 215
1903080S12057 1903 23 SI MM NOT_NAMED 1903-03-28 00:00:00 NR -18.2551 49.7344 main 33 23 _____P____P___ -1 -16.9302 50.6338 99 -19.5800 48.8351 7 7 215
1903080S12057 1903 23 SI MM NOT_NAMED 1903-03-28 03:00:00 NR -18.5569 49.5137 main 30 15 _____P____P___ -1 -17.2100 50.4166 99 -19.9037 48.6107 7 7 215
1903080S12057 1903 23 SI MM NOT_NAMED 1903-03-28 06:00:00 NR -18.8500 49.3000 reunion main 15 10 _____O____O___ -1 -17.5000 50.2000 99 9.90000 -20.2000 48.4000 7 7 216
1903080S12057 1903 23 SI MM NOT_NAMED 1903-03-28 09:00:00 NR -19.1344 49.0777 main 10 0 _____P____P___ -1 -17.8151 49.9573 99 -20.4537 48.1981 7 7 216
1903080S12057 1903 23 SI MM NOT_NAMED 1903-03-28 12:00:00 NR -19.4112 48.8636 main 0 0 _____P____P___ -1 -18.1425 49.7151 99 -20.6799 48.0121 7 7 216
1903080S12057 1903 23 SI MM NOT_NAMED 1903-03-28 15:00:00 NR -19.6843 48.6603 main 0 0 _____P____P___ -1 -18.4774 49.4756 99 -20.8912 47.8451 7 7 214
1903080S12057 1903 23 SI MM NOT_NAMED 1903-03-28 18:00:00 NR -19.9575 48.4705 main 0 0 _____P____O___ -1 -18.8151 49.2411 99 -21.1000 47.7000 7 6 212
1903080S12057 1903 23 SI MM NOT_NAMED 1903-03-28 21:00:00 NR -20.2196 48.2979 main 0 0 _____P____P___ -1 -19.1509 49.0139 99 -21.2883 47.5820 7 6 210
1903080S12057 1903 23 SI MM NOT_NAMED 1903-03-29 00:00:00 NR -20.4812 48.1403 main 0 0 _____P____P___ -1 -19.4801 48.7964 99 -21.4824 47.4843 7 6 208
1903080S12057 1903 23 SI MM NOT_NAMED 1903-03-29 03:00:00 NR -20.7541 47.9927 main 0 0 _____P____P___ -1 -19.7981 48.5909 99 -21.7102 47.3944 7 6 206
1903080S12057 1903 23 SI MM NOT_NAMED 1903-03-29 06:00:00 NR -21.0500 47.8500 reunion main 0 0 _____O____O___ -1 -20.1000 48.4000 99 9.90000 -22.0000 47.3000 7 7 206
1903080S12057 1903 23 SI MM NOT_NAMED 1903-03-29 09:00:00 NR -21.3614 47.6774 main 0 0 _____P____P___ -1 -20.3373 48.2081 99 -22.3854 47.1466 7 7 206
1903080S12057 1903 23 SI MM NOT_NAMED 1903-03-29 12:00:00 NR -21.6943 47.5102 main 0 0 _____P____P___ -1 -20.5560 48.0288 99 -22.8327 46.9915 7 7 203
1903080S12057 1903 23 SI MM NOT_NAMED 1903-03-29 15:00:00 NR -22.0395 47.3646 main 0 0 _____P____P___ -1 -20.7654 47.8636 99 -23.3135 46.8656 7 7 199
1903080S12057 1903 23 SI MM NOT_NAMED 1903-03-29 18:00:00 NR -22.3874 47.2570 main 0 0 _____P____O___ -1 -20.9748 47.7139 99 -23.8000 46.8000 7 7 192
1903080S12057 1903 23 SI MM NOT_NAMED 1903-03-29 21:00:00 NR -22.7340 47.2058 main 0 0 _____P____P___ -1 -21.1936 47.5813 99 -24.2743 46.8303 7 7 185
1903080S12057 1903 23 SI MM NOT_NAMED 1903-03-30 00:00:00 NR -23.0881 47.1955 main 0 0 _____P____P___ -1 -21.4312 47.4671 99 -24.7450 46.9238 7 7 179
1903080S12057 1903 23 SI MM NOT_NAMED 1903-03-30 03:00:00 NR -23.4450 47.2142 main 0 0 _____P____P___ -1 -21.6969 47.3729 99 -25.1931 47.0555 7 7 175
1903080S12057 1903 23 SI MM NOT_NAMED 1903-03-30 06:00:00 NR -23.8000 47.2500 reunion main 0 0 _____O____O___ -1 -22.0000 47.3000 99 9.90000 -25.6000 47.2000 7 7 177
1903080S12057 1903 23 SI MM NOT_NAMED 1903-03-30 09:00:00 NR -24.1693 47.2632 main 0 0 _____P____P___ -1 -22.3955 47.2243 99 -25.9430 47.3021 7 7 178
1903080S12057 1903 23 SI MM NOT_NAMED 1903-03-30 12:00:00 NR -24.5374 47.2911 main 0 0 _____P____P___ -1 -22.8301 47.1688 99 -26.2447 47.4133 7 7 174
1903080S12057 1903 23 SI MM NOT_NAMED 1903-03-30 15:00:00 NR -24.9080 47.3385 main 20 20 _____P____P___ -1 -23.2919 47.1342 99 -26.5242 47.5428 7 8 171
1903080S12057 1903 23 SI MM NOT_NAMED 1903-03-30 18:00:00 NR -25.2847 47.4106 main 45 45 _____P____O___ -1 -23.7693 47.1212 99 -26.8000 47.7000 7 8 169
1903080S12057 1903 23 SI MM NOT_NAMED 1903-03-30 21:00:00 NR -25.6733 47.5094 main 83 83 _____P____P___ -1 -24.2506 47.1305 99 -27.0959 47.8883 7 8 165
1903080S12057 1903 23 SI MM NOT_NAMED 1903-03-31 00:00:00 NR -26.0582 47.6341 main 126 126 _____P____P___ -1 -24.7239 47.1629 99 -27.3924 48.1054 7 8 162
1903080S12057 1903 23 SI MM NOT_NAMED 1903-03-31 03:00:00 NR -26.4352 47.7819 main 165 165 _____P____P___ -1 -25.1777 47.2191 99 -27.6927 48.3447 7 8 159
1903080S12057 1903 23 SI MM NOT_NAMED 1903-03-31 06:00:00 NR -26.8000 47.9500 reunion main 214 209 _____O____O___ -1 -25.6000 47.3000 99 9.90000 -28.0000 48.6000 7 8 157
1903080S12057 1903 23 SI MM NOT_NAMED 1903-03-31 09:00:00 NR -27.1348 48.1179 main 248 248 _____P____P___ -1 -25.9438 47.3832 99 -28.3258 48.8527 7 7 154
1903080S12057 1903 23 SI MM NOT_NAMED 1903-03-31 12:00:00 NR -27.4585 48.3060 main 297 297 _____P____P___ -1 -26.2597 47.4917 99 -28.6573 49.1203 7 7 151
1903080S12057 1903 23 SI MM NOT_NAMED 1903-03-31 15:00:00 NR -27.7694 48.5135 main 335 335 _____P____P___ -1 -26.5536 47.6242 99 -28.9851 49.4028 7 7 148
1903080S12057 1903 23 SI MM NOT_NAMED 1903-03-31 18:00:00 NR -28.0657 48.7397 main 374 374 _____P____O___ -1 -26.8315 47.7794 99 -29.3000 49.7000 7 7 144
1903080S12057 1903 23 SI MM NOT_NAMED 1903-03-31 21:00:00 NR -28.3421 48.9776 main 408 408 _____P____P___ -1 -27.0992 47.9558 99 -29.5850 49.9993 7 7 141
1903080S12057 1903 23 SI MM NOT_NAMED 1903-04-01 00:00:00 NR -28.6098 49.2331 main 447 447 _____P____P___ -1 -27.3626 48.1523 99 -29.8570 50.3138 7 7 139
1903080S12057 1903 23 SI MM NOT_NAMED 1903-04-01 03:00:00 NR -28.8765 49.5069 main 491 491 _____P____P___ -1 -27.6275 48.3675 99 -30.1255 50.6463 7 7 137
1903080S12057 1903 23 SI MM NOT_NAMED 1903-04-01 06:00:00 NR -29.1500 49.8000 reunion main 525 534 _____O____O___ -1 -27.9000 48.6000 99 9.90000 -30.4000 51.0000 7 8 138
1903080S12057 1903 23 SI MM NOT_NAMED 1903-04-01 09:00:00 NR -29.4487 50.0949 main 569 569 _____P____P___ -1 -28.2008 48.8192 99 -30.6966 51.3707 7 8 139
1903080S12057 1903 23 SI MM NOT_NAMED 1903-04-01 12:00:00 NR -29.7526 50.4099 main 622 622 _____P____P___ -1 -28.5055 49.0567 99 -30.9996 51.7630 7 8 137
1903080S12057 1903 23 SI MM NOT_NAMED 1903-04-01 15:00:00 NR -30.0583 50.7435 main 666 666 _____P____P___ -1 -28.8139 49.3132 99 -31.3028 52.1739 7 9 136
1903080S12057 1903 23 SI MM NOT_NAMED 1903-04-01 18:00:00 NR -30.3628 51.0946 main 715 715 _____P____O___ -1 -29.1256 49.5891 99 -31.6000 52.6000 7 9 134
1903080S12057 1903 23 SI MM NOT_NAMED 1903-04-01 21:00:00 NR -30.6549 51.4531 main 765 765 _____P____P___ -1 -29.4404 49.8851 99 -31.8694 53.0210 7 9 133
1903080S12057 1903 23 SI MM NOT_NAMED 1903-04-02 00:00:00 NR -30.9459 51.8296 main 800 800 _____P____P___ -1 -29.7579 50.2018 99 -32.1340 53.4574 7 9 132
1903080S12057 1903 23 SI MM NOT_NAMED 1903-04-02 03:00:00 NR -31.2423 52.2275 main 850 850 _____P____P___ -1 -30.0779 50.5399 99 -32.4067 53.9151 7 9 131
1903080S12057 1903 23 SI MM NOT_NAMED 1903-04-02 06:00:00 NR -31.5500 52.6500 reunion main 905 905 _____O____O___ -1 -30.4000 50.9000 99 9.90000 -32.7000 54.4000 7 10 131
1903080S12057 1903 23 SI MM NOT_NAMED 1903-04-02 09:00:00 NR -31.8814 53.0999 main 964 964 _____P____P___ -1 -30.7221 51.2711 99 -33.0407 54.9288 7 10 131
1903080S12057 1903 23 SI MM NOT_NAMED 1903-04-02 12:00:00 NR -32.2233 53.5751 main 1020 1020 _____P____P___ -1 -31.0465 51.6660 99 -33.4002 55.4842 7 11 130
1903080S12057 1903 23 SI MM NOT_NAMED 1903-04-02 15:00:00 NR -32.5659 54.0651 main 1084 1084 _____P____P___ -1 -31.3724 52.0825 99 -33.7594 56.0476 7 11 129
1903080S12057 1903 23 SI MM NOT_NAMED 1903-04-02 18:00:00 NR -32.8996 54.5590 main 1140 1140 _____P____O___ -1 -31.6991 52.5180 99 -34.1000 56.6000 7 11 128
1903080S12057 1903 23 SI MM NOT_NAMED 1903-04-02 21:00:00 NR -33.2170 55.0480 main 1190 1190 _____P____P___ -1 -32.0259 52.9700 99 -34.4081 57.1260 7 7 129
1903080S12057 1903 23 SI MM NOT_NAMED 1903-04-03 00:00:00 NR -33.3533 55.2331 main 1219 1219 _____P____P___ -1 -32.3520 53.4360 99 -34.6883 57.6291 7 3 134
1903080S12057 1903 23 SI MM NOT_NAMED 1903-04-03 03:00:00 NR -33.4344 55.3149 main 1225 1225 _____P____P___ -1 -32.6769 53.9136 99 -34.9494 58.1175 7 1 169
1903080S12057 1903 23 SI MM NOT_NAMED 1903-04-03 06:00:00 NR -33.4400 55.2400 reunion main 1219 1192 _____O____O___ -1 -33.0000 54.4000 99 9.90000 -35.2000 58.6000 7 3 284
1903080S12057 1903 23 SI MM NOT_NAMED 1903-04-03 09:00:00 NR -33.3555 54.9363 main 1200 1200 _____P________ -1 -33.3555 54.9363 99 7 3 142
1903080S12057 1903 23 SI MM NOT_NAMED 1903-04-03 12:00:00 NR -33.7135 55.4920 main 1262 1262 _____P________ -1 -33.7135 55.4920 99 7 12 127
1903080S12057 1903 23 SI MM NOT_NAMED 1903-04-03 15:00:00 NR -34.0663 56.0545 main 1333 1333 _____P________ -1 -34.0663 56.0545 99 7 12 127
1903080S12057 1903 23 SI MM NOT_NAMED 1903-04-03 18:00:00 NR -34.4065 56.6109 main 1389 1389 _____P________ -1 -34.4065 56.6109 99 11 126
1903080S12057 1903 23 SI MM NOT_NAMED 1903-04-03 21:00:00 NR -34.7268 57.1476 main 1444 1444 _____P________ -1 -34.7268 57.1476 99 11 126
1903080S12057 1903 23 SI MM NOT_NAMED 1903-04-04 00:00:00 NR -35.0204 57.6509 main 1507 1507 _____P________ -1 -35.0204 57.6509 99 10 125
1903080S12057 1903 23 SI MM NOT_NAMED 1903-04-04 03:00:00 NR -35.2803 58.1065 main 1556 1556 _____P________ -1 -35.2803 58.1065 99 8 125
1903080S12057 1903 23 SI MM NOT_NAMED 1903-04-04 06:00:00 NR -35.5000 58.5000 reunion main 1598 1598 _____O________ -1 -35.5000 58.5000 99 9.90000 7 124
1903080S12057 1903 23 SI MM NOT_NAMED 1903-04-04 09:00:00 NR -35.6751 58.8208 main 1626 1626 _____P________ -1 -35.6751 58.8208 99 6 124
1903080S12057 1903 23 SI MM NOT_NAMED 1903-04-04 12:00:00 NR -35.8098 59.0739 main 1642 1632 _____P________ -1 -35.8098 59.0739 99 4 123
1903080S12057 1903 23 SI MM NOT_NAMED 1903-04-04 15:00:00 NR -35.9101 59.2685 main 1632 1619 _____P________ -1 -35.9101 59.2685 99 3 122
1903080S12057 1903 23 SI MM NOT_NAMED 1903-04-04 18:00:00 NR -35.9820 59.4140 main 1619 1615 _____P________ -1 -35.9820 59.4140 99 2 121
1903080S12057 1903 23 SI MM NOT_NAMED 1903-04-04 21:00:00 NR -36.0312 59.5201 main 1615 1601 _____P________ -1 -36.0312 59.5201 99 2 119
1903080S12057 1903 23 SI MM NOT_NAMED 1903-04-05 00:00:00 NR -36.0635 59.5966 main 1601 1597 _____P________ -1 -36.0635 59.5966 99 1 117
1903080S12057 1903 23 SI MM NOT_NAMED 1903-04-05 03:00:00 NR -36.0846 59.6532 main 1597 1597 _____P________ -1 -36.0846 59.6532 99 1 114
1903080S12057 1903 23 SI MM NOT_NAMED 1903-04-05 06:00:00 NR -36.1000 59.7000 reunion main 1597 _____O________ -1 -36.1000 59.7000 99 9.90000 1 113

About IBTrACS Database

This database is a web-friendly format of International Best Track Archive for Climate Stewardship (IBTrACS), a global best track data archive curated by NOAA dating back to 1842.

Updated: 2021-10-08